createdAt,value
2022-09-06T00:01:24.760Z,99546.75
2022-09-06T00:03:51.382Z,99533.38
2022-09-06T00:06:20.167Z,99511.91
2022-09-06T00:08:48.153Z,99474.66
2022-09-06T00:11:16.110Z,99469.22
2022-09-06T00:13:42.914Z,99453.44
2022-09-06T00:16:12.988Z,99440.31
2022-09-06T00:18:39.958Z,99430.09
2022-09-06T00:21:16.835Z,99425.03
2022-09-06T00:23:43.619Z,99412.78
2022-09-06T00:26:10.141Z,99414.13
2022-09-06T00:28:37.362Z,99414.94
2022-09-06T00:31:11.943Z,99400.88
2022-09-06T00:33:38.920Z,99400.59
2022-09-06T00:36:05.815Z,99405.44
2022-09-06T00:38:32.865Z,99395.03
2022-09-06T00:40:59.595Z,99375.59
2022-09-06T00:43:26.245Z,99359.06
2022-09-06T00:45:53.123Z,99337.16
2022-09-06T00:48:21.474Z,99337.19
2022-09-06T00:50:49.930Z,99319.53
2022-09-06T00:53:17.034Z,99303.28
2022-09-06T00:55:43.940Z,99306.72
2022-09-06T00:58:10.788Z,99322.31
2022-09-06T01:00:37.404Z,99341.41
2022-09-06T01:03:04.977Z,99334.59
2022-09-06T01:05:49.711Z,99328.19
2022-09-06T01:08:39.318Z,99328.44
2022-09-06T01:11:05.847Z,99327.69
2022-09-06T01:13:59.910Z,99334.03
2022-09-06T01:16:44.775Z,99337.50
2022-09-06T01:19:39.232Z,99339.91
2022-09-06T01:22:11.775Z,99338.22
2022-09-06T01:32:04.642Z,99333.06
2022-09-06T01:34:59.650Z,99334.50
2022-09-06T01:37:31.586Z,99326.75
2022-09-06T01:39:58.293Z,99335.47
2022-09-06T01:42:30.945Z,99334.88
2022-09-06T01:45:25.679Z,99335.31
2022-09-06T01:48:32.475Z,99326.66
2022-09-06T01:51:33.567Z,99323.25
2022-09-06T01:54:00.145Z,99325.78
2022-09-06T02:00:09.689Z,99319.38
2022-09-06T02:03:01.229Z,99317.94
2022-09-06T02:05:50.902Z,99319.66
2022-09-06T02:08:28.403Z,99318.25
2022-09-06T02:11:02.063Z,99326.03
2022-09-06T02:13:41.231Z,99315.25
2022-09-06T02:16:08.667Z,99320.06
2022-09-06T02:18:42.905Z,99322.16
2022-09-06T02:21:11.187Z,99324.94
2022-09-06T02:23:40.468Z,99314.47
2022-09-06T02:26:28.012Z,99316.63
2022-09-06T02:28:55.264Z,99314.69
2022-09-06T02:31:40.752Z,99311.31
2022-09-06T02:34:07.772Z,99316.91
2022-09-06T02:36:36.786Z,99325.41
2022-09-06T02:39:05.407Z,99330.69
2022-09-06T02:41:33.416Z,99335.03
2022-09-06T02:44:00.123Z,99348.44
2022-09-06T02:46:26.881Z,99356.75
2022-09-06T02:48:53.613Z,99356.00
2022-09-06T02:51:20.799Z,99345.72
2022-09-06T02:53:47.701Z,99349.66
2022-09-06T02:56:14.406Z,99344.66
2022-09-06T08:55:57.790Z,99370.41
2022-09-06T08:59:01.695Z,99379.16
2022-09-06T09:01:53.436Z,99366.00
2022-09-06T09:04:31.443Z,99370.41
2022-09-06T09:07:30.920Z,99375.59
2022-09-06T09:10:03.836Z,99367.75
2022-09-06T09:12:32.415Z,99365.13
2022-09-06T09:15:06.086Z,99370.28
2022-09-06T09:17:32.949Z,99367.66
2022-09-06T09:19:59.668Z,99376.31
2022-09-06T09:22:26.385Z,99365.78
2022-09-06T09:25:00.917Z,99363.28
2022-09-06T09:27:28.801Z,99356.13
2022-09-06T09:33:25.269Z,99361.09
2022-09-06T09:35:55.708Z,99352.22
2022-09-06T09:38:40.653Z,99355.59
2022-09-06T09:41:08.399Z,99348.84
2022-09-06T09:43:40.046Z,99344.41
2022-09-06T09:46:30.575Z,99343.59
2022-09-06T09:49:10.083Z,99345.19
2022-09-06T09:51:41.237Z,99353.81
2022-09-06T09:54:10.859Z,99351.03
2022-09-06T09:56:43.888Z,99364.34
2022-09-06T09:59:46.967Z,99362.25
2022-09-06T10:02:35.921Z,99370.00
2022-09-06T10:05:10.040Z,99356.81
2022-09-06T10:07:43.691Z,99353.22
2022-09-06T10:10:16.850Z,99345.19
2022-09-06T10:12:43.533Z,99351.31
2022-09-06T10:15:12.155Z,99348.50
2022-09-06T10:17:44.873Z,99342.22
2022-09-06T10:20:12.915Z,99350.81
2022-09-06T10:22:54.490Z,99338.28
2022-09-06T10:25:40.467Z,99339.00
2022-09-06T10:28:15.845Z,99333.78
2022-09-06T10:31:07.286Z,99339.78
2022-09-06T10:33:44.701Z,99325.09
2022-09-06T10:36:16.079Z,99327.25
2022-09-06T10:38:55.510Z,99322.59
2022-09-06T10:41:45.711Z,99326.09
2022-09-06T10:44:35.482Z,99322.75
2022-09-06T10:47:33.547Z,99308.81
2022-09-06T10:50:01.738Z,99304.41
2022-09-06T10:52:33.388Z,99303.13
2022-09-06T10:55:05.444Z,99298.50
2022-09-06T11:00:30.110Z,99293.97
2022-09-06T11:06:20.073Z,99281.38
2022-09-06T11:13:14.605Z,99271.34
2022-09-06T11:16:58.677Z,99270.03
2022-09-06T11:19:30.997Z,99272.94
2022-09-06T11:22:55.419Z,99265.66
2022-09-06T11:25:50.729Z,99259.41
2022-09-06T11:29:06.330Z,99259.66
2022-09-06T11:32:18.654Z,99255.75
2022-09-06T11:41:16.287Z,99251.78
2022-09-06T11:43:46.730Z,99251.19
2022-09-06T11:46:38.994Z,99259.63
2022-09-06T11:49:05.555Z,99253.31
2022-09-06T11:51:50.416Z,99254.28
2022-09-06T11:54:20.198Z,99254.97
2022-09-06T11:56:46.807Z,99245.91
2022-09-06T11:59:48.764Z,99247.03
2022-09-06T12:02:41.210Z,99247.63
2022-09-06T12:05:34.893Z,99245.81
2022-09-06T12:08:33.908Z,99244.78
2022-09-06T12:11:03.149Z,99234.06
2022-09-06T12:13:54.721Z,99238.09
2022-09-06T12:16:56.015Z,99225.16
2022-09-06T12:19:48.500Z,99237.00
2022-09-06T12:22:33.312Z,99239.16
2022-09-06T12:25:38.898Z,99239.16
2022-09-06T12:28:47.275Z,99234.72
2022-09-06T12:31:36.298Z,99228.78
2022-09-06T12:34:17.493Z,99233.00
2022-09-06T12:37:07.112Z,99230.59
2022-09-06T12:39:34.943Z,99224.47
2022-09-06T12:42:07.598Z,99219.50
2022-09-06T12:44:52.382Z,99221.34
2022-09-06T12:47:35.946Z,99214.53
2022-09-06T12:50:35.114Z,99208.22
2022-09-06T12:53:03.146Z,99204.06
2022-09-06T12:55:37.462Z,99198.72
2022-09-06T12:58:06.955Z,99193.06
2022-09-06T13:00:39.502Z,99190.19
2022-09-06T13:03:36.868Z,99182.00
2022-09-06T13:06:05.957Z,99186.19
2022-09-06T13:08:49.461Z,99174.25
2022-09-06T13:11:20.495Z,99172.56
2022-09-06T13:13:54.299Z,99172.56
2022-09-06T13:16:26.786Z,99172.56
2022-09-06T13:18:53.990Z,99167.38
2022-09-06T13:21:31.173Z,99173.81
2022-09-06T13:24:05.192Z,99168.91
2022-09-06T13:26:36.132Z,99162.06
2022-09-06T13:29:30.613Z,99157.13
2022-09-06T13:31:58.999Z,99149.22
2022-09-06T13:34:33.540Z,99150.88
2022-09-06T13:37:11.988Z,99148.16
2022-09-06T13:40:02.145Z,99142.41
2022-09-06T13:42:32.489Z,99134.25
2022-09-06T13:45:15.451Z,99137.22
2022-09-06T13:47:42.259Z,99131.41
2022-09-06T13:50:09.278Z,99122.00
2022-09-06T13:52:35.861Z,99120.63
2022-09-06T13:55:06.354Z,99118.88
2022-09-06T13:57:32.909Z,99114.94
2022-09-06T13:59:59.478Z,99108.84
2022-09-06T14:02:26.971Z,99107.88
2022-09-06T14:04:53.780Z,99106.84
2022-09-06T14:07:20.760Z,99100.13
2022-09-06T14:09:47.998Z,99097.47
2022-09-06T14:12:14.819Z,99097.97
2022-09-06T14:14:41.543Z,99100.75
2022-09-06T14:17:08.318Z,99101.06
2022-09-06T14:19:37.415Z,99091.84
2022-09-06T14:22:07.338Z,99098.25
2022-09-06T14:24:44.293Z,99104.13
2022-09-06T14:27:11.132Z,99100.41
2022-09-06T14:29:38.117Z,99098.00
2022-09-06T14:32:04.904Z,99099.16
2022-09-06T14:34:32.225Z,99095.03
2022-09-06T14:36:58.927Z,99087.38
2022-09-06T14:39:25.593Z,99093.81
2022-09-06T14:41:52.156Z,99080.72
2022-09-06T14:44:19.132Z,99070.13
2022-09-06T14:46:47.870Z,99074.16
2022-09-06T14:49:14.758Z,99069.84
2022-09-06T14:51:41.461Z,99072.41
2022-09-06T14:54:10.622Z,99068.84
2022-09-06T14:56:39.924Z,99066.38
2022-09-06T14:59:07.786Z,99073.50
2022-09-06T15:01:38.278Z,99062.72
2022-09-06T15:04:08.455Z,99064.84
2022-09-06T15:06:36.982Z,99059.28
2022-09-06T15:09:05.599Z,99058.72
2022-09-06T15:11:47.277Z,99058.94
2022-09-06T15:14:21.854Z,99052.75
2022-09-06T15:16:53.457Z,99042.59
2022-09-06T15:19:23.079Z,99037.50
2022-09-06T15:21:49.628Z,99033.41
2022-09-06T15:24:16.288Z,99041.00
2022-09-06T15:26:43.132Z,99030.59
2022-09-06T15:29:11.774Z,99036.16
2022-09-06T15:31:39.002Z,99030.66
2022-09-06T15:34:07.383Z,99028.34
2022-09-06T15:36:34.085Z,99024.34
2022-09-06T15:39:01.600Z,99020.38
2022-09-06T15:41:30.964Z,99011.19
2022-09-06T15:43:59.541Z,99007.47
2022-09-06T15:46:42.705Z,99016.00
2022-09-06T15:49:11.167Z,99012.75
2022-09-06T15:51:39.834Z,99013.00
2022-09-06T15:54:06.789Z,99014.59
2022-09-06T15:56:33.426Z,99015.91
2022-09-06T15:58:59.981Z,99010.44
2022-09-06T16:01:26.931Z,99009.78
2022-09-06T16:03:58.644Z,99008.72
2022-09-06T16:06:28.660Z,99012.34
2022-09-06T16:09:00.497Z,99017.09
2022-09-06T16:11:28.616Z,99007.47
2022-09-06T16:13:55.477Z,99004.75
2022-09-06T16:16:25.690Z,99005.63
2022-09-06T16:18:52.419Z,99012.16
2022-09-06T16:21:25.608Z,99010.13
2022-09-06T16:23:57.481Z,99005.81
2022-09-06T16:26:25.877Z,99004.38
2022-09-06T16:28:53.029Z,99001.94
2022-09-06T16:31:20.601Z,99000.28
2022-09-06T16:33:48.983Z,98996.91
2022-09-06T16:36:16.537Z,98998.72
2022-09-06T16:38:43.690Z,99010.50
2022-09-06T16:41:17.434Z,99011.50
2022-09-06T16:43:44.522Z,99010.09
2022-09-06T16:46:11.342Z,99007.06
2022-09-06T16:48:41.249Z,99010.75
2022-09-06T16:51:15.916Z,99010.19
2022-09-06T16:53:44.611Z,99003.75
2022-09-06T16:56:13.233Z,98998.72
2022-09-06T16:58:39.850Z,98998.88
2022-09-06T17:01:07.310Z,98998.16
2022-09-06T17:03:35.042Z,99003.66
2022-09-06T17:06:02.161Z,98988.78
2022-09-06T17:08:31.415Z,98989.06
2022-09-06T17:11:06.523Z,98996.84
2022-09-06T17:13:33.153Z,98995.47
2022-09-06T17:16:22.075Z,99001.59
2022-09-06T17:18:49.599Z,98985.03
2022-09-06T17:31:58.190Z,98979.53
2022-09-06T17:34:24.802Z,98975.13
2022-09-06T17:36:51.668Z,98970.88
2022-09-06T17:39:20.992Z,98962.19
2022-09-06T17:41:49.944Z,98973.88
2022-09-06T17:44:19.010Z,98972.13
2022-09-06T17:47:02.841Z,98966.97
2022-09-06T17:49:32.954Z,98969.69
2022-09-06T17:51:59.509Z,98969.00
2022-09-06T17:54:26.709Z,98961.13
2022-09-06T17:56:53.298Z,98956.91
2022-09-06T17:59:20.144Z,98955.31
2022-09-06T18:01:46.786Z,98959.00
2022-09-06T18:04:14.476Z,98966.38
2022-09-06T18:06:43.190Z,98973.53
2022-09-06T18:09:16.846Z,98981.75
2022-09-06T18:11:45.961Z,98986.25
2022-09-06T18:14:16.197Z,98983.94
2022-09-06T18:16:45.376Z,98992.34
2022-09-06T18:19:12.475Z,98987.91
2022-09-06T18:21:40.987Z,98987.13
2022-09-06T18:24:09.291Z,98998.59
2022-09-06T18:26:37.255Z,98990.25
2022-09-06T18:29:06.990Z,98986.25
2022-09-06T18:31:34.019Z,98983.19
2022-09-06T18:34:00.685Z,98984.94
2022-09-06T18:36:32.002Z,98985.09
2022-09-06T18:39:03.084Z,98990.41
2022-09-06T18:41:49.131Z,98993.09
2022-09-06T18:44:16.650Z,98981.00
2022-09-06T18:46:43.478Z,98979.13
2022-09-06T18:49:11.132Z,98984.22
2022-09-06T18:51:39.680Z,98981.50
2022-09-06T18:54:06.882Z,98972.78
2022-09-06T18:56:33.733Z,98976.28
2022-09-06T18:59:00.985Z,98978.19
2022-09-06T19:01:29.190Z,98975.94
2022-09-06T19:03:59.832Z,98967.13
2022-09-06T19:06:28.274Z,98967.31
2022-09-06T19:09:01.444Z,98963.00
2022-09-06T19:11:28.756Z,98962.03
2022-09-06T19:13:56.367Z,98964.75
2022-09-06T19:16:24.229Z,98962.94
2022-09-06T19:18:51.201Z,98960.38
2022-09-06T19:21:22.162Z,98949.00
2022-09-06T19:23:56.996Z,98942.00
2022-09-06T19:26:26.715Z,98941.19
2022-09-06T19:28:58.543Z,98937.66
2022-09-06T19:31:27.037Z,98931.53
2022-09-06T19:33:54.564Z,98928.97
2022-09-06T19:36:22.182Z,98936.00
2022-09-06T19:39:02.916Z,98945.69
2022-09-06T19:41:31.376Z,98944.91
2022-09-06T19:43:58.530Z,98950.19
2022-09-06T19:46:26.709Z,98954.56
2022-09-06T19:48:55.996Z,98953.69
2022-09-06T19:51:24.081Z,98958.09
2022-09-06T19:53:57.619Z,98952.94
2022-09-06T19:56:26.493Z,98961.72
2022-09-06T19:58:58.290Z,98968.06
2022-09-06T20:01:26.546Z,98967.97
2022-09-06T20:03:53.502Z,98969.72
2022-09-06T20:06:20.919Z,98961.00
2022-09-06T20:08:50.649Z,98963.56
2022-09-06T20:11:18.027Z,98959.19
2022-09-06T20:13:45.040Z,98962.72
2022-09-06T20:16:12.922Z,98970.59
2022-09-06T20:18:40.054Z,98967.09
2022-09-06T20:21:06.855Z,98961.84
2022-09-06T20:23:36.750Z,98967.19
2022-09-06T20:26:11.303Z,98956.63
2022-09-06T20:28:37.958Z,98961.84
2022-09-06T20:31:06.901Z,98955.75
2022-09-06T20:33:33.950Z,98959.28
2022-09-06T20:36:03.567Z,98955.81
2022-09-06T20:38:31.604Z,98970.66
2022-09-06T20:41:03.563Z,98971.59
2022-09-06T20:43:33.660Z,98968.16
2022-09-06T20:46:01.708Z,98977.88
2022-09-06T20:48:28.433Z,98976.28
2022-09-06T20:51:02.631Z,98979.00
2022-09-06T20:53:32.822Z,98980.81
2022-09-06T20:56:01.389Z,98980.81
2022-09-06T20:58:28.971Z,98990.53
2022-09-06T21:00:56.635Z,98986.97
2022-09-06T21:03:23.628Z,98986.88
2022-09-06T21:05:53.069Z,98982.56
2022-09-06T21:08:19.900Z,98990.47
2022-09-06T21:10:46.499Z,98983.50
2022-09-06T21:13:16.187Z,98986.94
2022-09-06T21:15:47.450Z,98987.81
2022-09-06T21:18:14.356Z,98998.31
2022-09-06T21:20:40.897Z,98983.78
2022-09-06T21:23:07.494Z,98974.28
2022-09-06T21:25:34.158Z,98978.59
2022-09-06T21:28:00.765Z,98975.00
2022-09-06T21:30:27.536Z,98970.88
2022-09-06T21:32:54.996Z,98978.63
2022-09-06T21:35:23.779Z,98980.31
2022-09-06T21:37:51.340Z,98976.09
2022-09-06T21:40:20.538Z,98969.13
2022-09-06T21:42:47.174Z,98966.41
2022-09-06T21:47:42.638Z,98960.31
2022-09-06T21:50:09.774Z,98961.16
2022-09-06T21:52:36.542Z,98970.69
2022-09-06T21:55:04.561Z,98965.47
2022-09-06T21:57:31.127Z,98962.13
2022-09-06T21:59:57.699Z,98958.66
2022-09-06T22:02:24.714Z,98966.44
2022-09-06T22:04:51.473Z,98976.03
2022-09-06T22:07:18.278Z,98970.75
2022-09-06T22:09:44.837Z,98986.47
2022-09-06T22:12:16.518Z,99001.31
2022-09-06T22:14:44.536Z,99011.91
2022-09-06T22:17:11.167Z,99021.50
2022-09-06T22:19:37.746Z,99032.03
2022-09-06T22:22:04.408Z,99058.22
2022-09-06T22:24:31.161Z,99065.19
2022-09-06T22:26:57.800Z,99068.66
2022-09-06T22:29:32.655Z,99056.47
2022-09-06T22:32:00.799Z,99055.59
2022-09-06T22:34:48.065Z,99049.44
2022-09-06T22:37:20.205Z,99037.28
2022-09-06T22:39:48.198Z,99014.66
2022-09-06T22:42:14.894Z,98971.84
2022-09-06T22:44:43.562Z,98969.22
2022-09-06T22:47:19.630Z,98984.13
2022-09-06T22:49:46.695Z,98988.41
2022-09-06T22:52:15.529Z,98975.34
2022-09-06T22:54:42.252Z,98957.13
2022-09-06T22:57:19.055Z,98945.00
2022-09-06T22:59:45.681Z,98942.41
2022-09-06T23:02:12.228Z,98970.19
2022-09-06T23:04:41.334Z,98979.81
2022-09-06T23:07:08.081Z,98988.47
2022-09-06T23:09:34.892Z,98991.88
2022-09-06T23:12:01.743Z,98991.88
2022-09-06T23:14:29.074Z,98969.22
2022-09-06T23:16:56.595Z,98988.41
2022-09-06T23:19:25.355Z,99006.69
2022-09-06T23:21:52.083Z,99004.06
2022-09-06T23:24:21.911Z,98995.38
2022-09-06T23:26:49.530Z,98996.31
2022-09-06T23:29:16.437Z,98998.09
2022-09-06T23:31:43.079Z,98990.25
2022-09-06T23:34:09.864Z,98978.88
2022-09-06T23:36:37.963Z,98983.28
2022-09-06T23:39:07.029Z,98986.78
2022-09-06T23:41:34.386Z,98994.56
2022-09-06T23:44:01.942Z,98993.69
2022-09-06T23:46:28.663Z,98994.53
2022-09-06T23:49:00.823Z,98995.38
2022-09-06T23:51:28.592Z,98984.94
2022-09-06T23:53:55.184Z,98998.00
2022-09-06T23:56:22.430Z,98994.44
2022-09-06T23:58:54.390Z,98988.41
